Time;durP1;ratioP1;P1;durP2;ratioP2;P2;SDS_P1;SDS_P2;PMS_P1;PMS_P2;Temp;Humidity;BMP_temperature;BMP_pressure;BME280_temperature;BME280_humidity;BME280_pressure;Samples;Min_cycle;Max_cycle;Signal;HPM_P1;HPM_P2
2023/08/19 00:01:45;;;;;;;3.45;2.28;;;;;;;;;;5111749;28;20198;-80
2023/08/19 00:04:14;;;;;;;3.03;2.30;;;;;;;;;;5111014;28;20630;-80
2023/08/19 00:06:42;;;;;;;2.65;2.22;;;;;;;;;;5098700;28;20233;-80
2023/08/19 00:09:11;;;;;;;2.33;2.00;;;;;;;;;;5091172;28;20205;-80
2023/08/19 00:11:39;;;;;;;4.95;2.00;;;;;;;;;;5091303;28;20617;-80
2023/08/19 00:14:06;;;;;;;3.15;1.90;;;;;;;;;;5091508;28;20198;-80
2023/08/19 00:16:34;;;;;;;3.25;2.13;;;;;;;;;;5091217;28;20235;-80
2023/08/19 00:19:02;;;;;;;3.08;2.00;;;;;;;;;;5091609;28;20198;-81
2023/08/19 00:21:31;;;;;;;2.97;1.98;;;;;;;;;;5092675;28;20202;-80
2023/08/19 00:23:59;;;;;;;2.53;1.88;;;;;;;;;;5095204;28;20320;-80
2023/08/19 00:26:26;;;;;;;4.18;2.00;;;;;;;;;;5095384;28;20281;-79
2023/08/19 00:28:53;;;;;;;3.00;2.20;;;;;;;;;;5095104;28;20195;-80
2023/08/19 00:31:20;;;;;;;4.00;1.80;;;;;;;;;;5095127;28;20210;-80
2023/08/19 00:33:47;;;;;;;2.63;2.00;;;;;;;;;;5095184;28;20225;-80
2023/08/19 00:36:15;;;;;;;3.80;2.22;;;;;;;;;;5094605;28;20226;-81
2023/08/19 00:38:44;;;;;;;2.95;2.00;;;;;;;;;;5106429;28;20297;-80
2023/08/19 00:41:11;;;;;;;5.05;2.60;;;;;;;;;;5115611;28;20677;-80
2023/08/19 00:43:38;;;;;;;3.67;2.40;;;;;;;;;;5115060;28;20312;-81
2023/08/19 00:46:08;;;;;;;4.30;2.38;;;;;;;;;;5115527;28;20217;-80
2023/08/19 00:48:35;;;;;;;4.70;2.33;;;;;;;;;;5115325;28;20208;-80
2023/08/19 00:51:05;;;;;;;4.18;2.00;;;;;;;;;;5115275;28;20194;-80
2023/08/19 00:53:34;;;;;;;4.25;2.30;;;;;;;;;;5114581;28;20230;-80
2023/08/19 00:56:03;;;;;;;5.53;2.40;;;;;;;;;;5115337;28;20228;-80
2023/08/19 00:58:30;;;;;;;2.97;2.25;;;;;;;;;;5114990;28;20225;-80
2023/08/19 01:00:57;;;;;;;5.22;2.28;;;;;;;;;;5114872;27;20233;-80
2023/08/19 01:03:25;;;;;;;5.18;2.33;;;;;;;;;;5114984;28;20233;-80
2023/08/19 01:05:59;;;;;;;5.93;2.53;;;;;;;;;;5115118;28;20194;-80
2023/08/19 01:08:31;;;;;;;4.43;2.38;;;;;;;;;;5114737;28;20232;-80
2023/08/19 01:11:04;;;;;;;5.00;2.80;;;;;;;;;;5114299;28;20236;-80
2023/08/19 01:13:38;;;;;;;6.50;2.30;;;;;;;;;;5114842;28;20194;-80
2023/08/19 01:16:08;;;;;;;5.85;3.20;;;;;;;;;;5114658;28;20276;-79
2023/08/19 01:18:37;;;;;;;3.88;2.40;;;;;;;;;;5074270;28;20559;-80
2023/08/19 01:21:04;;;;;;;3.53;2.30;;;;;;;;;;5074186;28;20234;-80
2023/08/19 01:23:35;;;;;;;4.38;2.40;;;;;;;;;;5074318;28;20300;-79
2023/08/19 01:26:03;;;;;;;3.28;2.20;;;;;;;;;;5074086;28;20195;-79
2023/08/19 01:28:30;;;;;;;5.07;2.58;;;;;;;;;;5074013;28;20199;-80
2023/08/19 01:30:58;;;;;;;3.92;2.20;;;;;;;;;;5083709;28;20292;-79
2023/08/19 01:33:25;;;;;;;7.22;2.28;;;;;;;;;;5075845;28;20214;-79
2023/08/19 01:35:58;;;;;;;8.88;2.53;;;;;;;;;;5073947;28;20246;-80
2023/08/19 01:38:28;;;;;;;3.63;2.00;;;;;;;;;;5074418;28;20617;-80
2023/08/19 01:40:55;;;;;;;5.63;2.55;;;;;;;;;;5073495;28;20663;-79
2023/08/19 01:43:24;;;;;;;3.75;2.40;;;;;;;;;;5073726;28;20781;-80
2023/08/19 01:45:52;;;;;;;5.45;2.33;;;;;;;;;;5073661;28;20195;-79
2023/08/19 01:48:19;;;;;;;5.97;2.40;;;;;;;;;;5073642;28;20289;-79
2023/08/19 01:50:46;;;;;;;3.58;2.50;;;;;;;;;;5072938;28;20226;-80
2023/08/19 01:53:13;;;;;;;5.50;2.38;;;;;;;;;;5073661;28;20231;-80
2023/08/19 01:55:41;;;;;;;4.07;2.22;;;;;;;;;;5073186;28;20199;-79
2023/08/19 01:58:08;;;;;;;4.50;2.40;;;;;;;;;;5073848;28;20310;-79
2023/08/19 02:00:36;;;;;;;5.85;2.88;;;;;;;;;;5073528;28;20226;-79
2023/08/19 02:03:05;;;;;;;3.63;2.40;;;;;;;;;;5073302;28;20584;-80
2023/08/19 02:05:32;;;;;;;3.22;2.30;;;;;;;;;;5073351;28;20585;-79
2023/08/19 02:07:59;;;;;;;5.50;2.55;;;;;;;;;;5073099;28;20693;-80
2023/08/19 02:10:26;;;;;;;5.93;2.53;;;;;;;;;;5073074;28;20245;-80
2023/08/19 02:12:54;;;;;;;4.15;2.40;;;;;;;;;;5073095;28;20202;-80
2023/08/19 02:15:21;;;;;;;4.97;2.22;;;;;;;;;;5073066;28;20226;-79
2023/08/19 02:17:49;;;;;;;6.13;2.40;;;;;;;;;;5086935;28;20202;-78
2023/08/19 02:20:17;;;;;;;5.50;2.28;;;;;;;;;;5092928;28;20289;-80
2023/08/19 02:22:44;;;;;;;4.88;2.47;;;;;;;;;;5093149;28;20234;-79
2023/08/19 02:25:11;;;;;;;5.05;2.70;;;;;;;;;;5093553;28;20230;-79
2023/08/19 02:27:38;;;;;;;5.15;2.20;;;;;;;;;;5093039;28;20226;-80
2023/08/19 02:30:06;;;;;;;4.03;2.42;;;;;;;;;;5093446;28;20190;-80
2023/08/19 02:32:33;;;;;;;5.15;2.80;;;;;;;;;;5093079;28;20290;-80
2023/08/19 02:35:03;;;;;;;4.55;2.70;;;;;;;;;;5092740;28;20289;-79
2023/08/19 02:37:30;;;;;;;7.18;2.65;;;;;;;;;;5092742;28;20244;-79
2023/08/19 02:39:57;;;;;;;6.43;2.67;;;;;;;;;;5092949;28;20741;-80
2023/08/19 02:42:24;;;;;;;5.30;3.00;;;;;;;;;;5092806;28;20733;-79
2023/08/19 02:44:52;;;;;;;6.20;2.78;;;;;;;;;;5091439;28;20324;-79
2023/08/19 02:47:19;;;;;;;5.75;2.92;;;;;;;;;;5092601;28;20204;-79
2023/08/19 02:49:46;;;;;;;8.40;2.88;;;;;;;;;;5092519;28;20218;-79
2023/08/19 02:52:15;;;;;;;7.32;3.35;;;;;;;;;;5092345;28;20310;-79
2023/08/19 02:54:42;;;;;;;6.43;2.60;;;;;;;;;;5092576;28;20201;-79
2023/08/19 02:57:09;;;;;;;7.97;3.13;;;;;;;;;;5092865;28;20327;-79
2023/08/19 02:59:37;;;;;;;5.78;2.75;;;;;;;;;;5092711;28;20256;-80
2023/08/19 03:02:04;;;;;;;5.15;2.85;;;;;;;;;;5092545;28;20194;-81
2023/08/19 03:04:31;;;;;;;6.60;2.78;;;;;;;;;;5092197;28;20316;-79
2023/08/19 03:06:58;;;;;;;6.57;3.08;;;;;;;;;;5092736;28;20281;-80
2023/08/19 03:09:27;;;;;;;6.03;3.03;;;;;;;;;;5092345;28;20195;-80
2023/08/19 03:11:54;;;;;;;7.15;2.92;;;;;;;;;;5092271;28;20289;-81
2023/08/19 03:14:22;;;;;;;6.75;2.60;;;;;;;;;;5092595;28;20198;-80
2023/08/19 03:16:49;;;;;;;6.38;2.97;;;;;;;;;;5086324;28;20294;-79
2023/08/19 03:19:17;;;;;;;6.18;3.08;;;;;;;;;;5072054;28;20252;-80
2023/08/19 03:21:44;;;;;;;5.35;3.03;;;;;;;;;;5071825;28;20222;-79
2023/08/19 03:24:11;;;;;;;9.65;3.25;;;;;;;;;;5071264;28;20229;-79
2023/08/19 03:26:39;;;;;;;5.70;2.92;;;;;;;;;;5071772;28;20223;-80
2023/08/19 03:29:07;;;;;;;6.28;3.10;;;;;;;;;;5072007;28;20755;-80
2023/08/19 03:31:34;;;;;;;8.43;3.08;;;;;;;;;;5071694;28;20281;-80
2023/08/19 03:34:01;;;;;;;6.90;3.05;;;;;;;;;;5071917;28;20252;-79
2023/08/19 03:36:28;;;;;;;8.50;2.70;;;;;;;;;;5072105;28;20252;-79
2023/08/19 03:38:56;;;;;;;9.15;2.85;;;;;;;;;;5071571;28;20191;-80
2023/08/19 03:41:23;;;;;;;5.53;2.75;;;;;;;;;;5071521;28;20202;-78
2023/08/19 03:43:52;;;;;;;8.48;3.28;;;;;;;;;;5071977;28;20341;-79
2023/08/19 03:46:19;;;;;;;7.35;3.00;;;;;;;;;;5070937;28;20703;-79
2023/08/19 03:48:46;;;;;;;8.15;3.17;;;;;;;;;;5071363;28;20199;-80
2023/08/19 03:51:13;;;;;;;9.05;3.28;;;;;;;;;;5071405;28;20634;-80
2023/08/19 03:53:40;;;;;;;8.50;3.20;;;;;;;;;;5071342;28;20281;-79
2023/08/19 03:56:08;;;;;;;8.18;3.30;;;;;;;;;;5071392;28;20289;-80
2023/08/19 03:58:35;;;;;;;6.40;2.90;;;;;;;;;;5071242;28;20229;-80
2023/08/19 04:01:07;;;;;;;6.68;2.92;;;;;;;;;;5071623;28;20245;-79
2023/08/19 04:03:34;;;;;;;11.32;3.45;;;;;;;;;;5071251;28;20309;-78
2023/08/19 04:06:02;;;;;;;8.43;2.97;;;;;;;;;;5071343;28;20245;-79
2023/08/19 04:08:29;;;;;;;10.40;3.10;;;;;;;;;;5071240;28;20234;-79
2023/08/19 04:10:56;;;;;;;6.18;3.22;;;;;;;;;;5070990;28;20964;-79
2023/08/19 04:13:23;;;;;;;8.15;3.63;;;;;;;;;;5071189;28;20735;-79
2023/08/19 04:15:51;;;;;;;8.75;3.42;;;;;;;;;;5070548;28;20763;-79
2023/08/19 04:18:19;;;;;;;10.07;3.78;;;;;;;;;;5088741;28;20745;-79
2023/08/19 04:20:46;;;;;;;8.02;3.40;;;;;;;;;;5091245;28;20285;-79
2023/08/19 04:23:14;;;;;;;13.55;3.67;;;;;;;;;;5091405;28;20285;-79
2023/08/19 04:25:41;;;;;;;8.85;3.30;;;;;;;;;;5091264;28;20666;-79
2023/08/19 04:28:08;;;;;;;11.35;3.90;;;;;;;;;;5091220;28;20194;-79
2023/08/19 04:30:36;;;;;;;12.40;3.50;;;;;;;;;;5091501;28;20226;-79
2023/08/19 04:33:04;;;;;;;12.63;3.70;;;;;;;;;;5090921;28;20235;-79
2023/08/19 04:35:33;;;;;;;13.48;3.38;;;;;;;;;;5090775;28;20688;-79
2023/08/19 04:38:00;;;;;;;12.80;3.83;;;;;;;;;;5091268;28;20202;-79
2023/08/19 04:40:27;;;;;;;12.45;3.63;;;;;;;;;;5090990;28;20226;-78
2023/08/19 04:42:54;;;;;;;15.02;3.60;;;;;;;;;;5091251;28;20720;-80
2023/08/19 04:45:21;;;;;;;10.00;4.03;;;;;;;;;;5090469;28;20249;-79
2023/08/19 04:47:48;;;;;;;10.38;3.40;;;;;;;;;;5090867;28;20286;-79
2023/08/19 04:50:16;;;;;;;13.63;3.90;;;;;;;;;;5090898;28;20289;-80
2023/08/19 04:52:44;;;;;;;12.23;3.55;;;;;;;;;;5090852;28;20257;-79
2023/08/19 04:55:11;;;;;;;12.75;3.97;;;;;;;;;;5091004;28;20202;-80
2023/08/19 04:57:39;;;;;;;9.18;3.88;;;;;;;;;;5091080;28;20240;-79
2023/08/19 05:00:08;;;;;;;10.63;3.65;;;;;;;;;;5090298;28;20233;-79
2023/08/19 05:02:35;;;;;;;11.48;3.35;;;;;;;;;;5090833;28;20244;-79
2023/08/19 05:05:03;;;;;;;14.30;3.65;;;;;;;;;;5090853;28;20328;-79
2023/08/19 05:07:30;;;;;;;12.40;3.20;;;;;;;;;;5090947;28;20214;-79
2023/08/19 05:09:59;;;;;;;11.38;3.08;;;;;;;;;;5093985;28;20225;-79
2023/08/19 05:12:26;;;;;;;15.57;3.35;;;;;;;;;;5094519;28;20710;-79
2023/08/19 05:14:53;;;;;;;10.65;3.58;;;;;;;;;;5094108;28;20293;-79
2023/08/19 05:17:20;;;;;;;13.07;3.33;;;;;;;;;;5094562;28;20285;-79
2023/08/19 05:19:48;;;;;;;12.50;3.30;;;;;;;;;;5094315;28;20234;-79
2023/08/19 05:22:15;;;;;;;13.90;3.55;;;;;;;;;;5094139;28;20195;-79
2023/08/19 05:24:42;;;;;;;13.48;3.70;;;;;;;;;;5094280;28;20313;-79
2023/08/19 05:27:10;;;;;;;12.73;3.15;;;;;;;;;;5093413;28;20568;-79
2023/08/19 05:29:38;;;;;;;12.85;3.65;;;;;;;;;;5094458;28;20316;-79
2023/08/19 05:32:05;;;;;;;11.85;3.20;;;;;;;;;;5094363;28;20273;-79
2023/08/19 05:34:33;;;;;;;12.18;3.50;;;;;;;;;;5093884;28;20237;-79
2023/08/19 05:37:00;;;;;;;8.18;3.10;;;;;;;;;;5094450;28;20199;-78
2023/08/19 05:39:28;;;;;;;15.40;3.65;;;;;;;;;;5093878;28;20263;-79
2023/08/19 05:41:55;;;;;;;12.18;3.60;;;;;;;;;;5093727;28;20230;-79
2023/08/19 05:44:23;;;;;;;17.10;3.90;;;;;;;;;;5093595;28;20261;-79
2023/08/19 05:46:51;;;;;;;12.55;3.47;;;;;;;;;;5094029;28;20245;-80
2023/08/19 05:49:18;;;;;;;12.88;3.55;;;;;;;;;;5093953;28;20201;-79
2023/08/19 05:51:45;;;;;;;11.98;3.67;;;;;;;;;;5094006;28;20588;-79
2023/08/19 05:54:12;;;;;;;9.30;3.35;;;;;;;;;;5093826;28;20261;-79
2023/08/19 05:56:40;;;;;;;12.68;3.58;;;;;;;;;;5093448;28;20195;-79
2023/08/19 05:59:07;;;;;;;13.23;3.50;;;;;;;;;;5093364;28;20233;-79
2023/08/19 06:01:36;;;;;;;13.52;3.45;;;;;;;;;;5093701;28;20205;-79
2023/08/19 06:04:03;;;;;;;12.70;3.47;;;;;;;;;;5093308;28;20226;-79
2023/08/19 06:06:30;;;;;;;12.82;3.35;;;;;;;;;;5093424;28;20237;-79
2023/08/19 06:08:58;;;;;;;11.95;3.22;;;;;;;;;;5093809;28;20233;-79
2023/08/19 06:11:25;;;;;;;14.88;3.67;;;;;;;;;;5093140;28;20282;-80
2023/08/19 06:13:52;;;;;;;12.45;3.67;;;;;;;;;;5093624;28;20191;-78
2023/08/19 06:16:20;;;;;;;17.08;3.78;;;;;;;;;;5093269;28;20194;-78
2023/08/19 06:18:48;;;;;;;10.88;3.42;;;;;;;;;;5093298;28;20238;-79
2023/08/19 06:21:17;;;;;;;17.63;3.55;;;;;;;;;;5093283;28;20291;-79
2023/08/19 06:23:44;;;;;;;14.23;3.47;;;;;;;;;;5093146;28;20205;-79
2023/08/19 06:26:11;;;;;;;14.50;2.90;;;;;;;;;;5092907;28;20289;-79
2023/08/19 06:28:38;;;;;;;15.88;3.40;;;;;;;;;;5093260;28;20858;-79
2023/08/19 06:31:06;;;;;;;13.25;3.10;;;;;;;;;;5093174;28;20932;-79
2023/08/19 06:33:33;;;;;;;10.10;2.80;;;;;;;;;;5093105;28;20281;-80
2023/08/19 06:36:02;;;;;;;11.70;2.72;;;;;;;;;;5093084;28;20767;-80
2023/08/19 06:38:30;;;;;;;13.07;3.03;;;;;;;;;;5093163;28;20769;-79
2023/08/19 06:41:00;;;;;;;10.57;2.58;;;;;;;;;;5093121;28;20237;-80
2023/08/19 06:43:27;;;;;;;9.98;2.42;;;;;;;;;;5093338;28;20269;-80
2023/08/19 06:45:55;;;;;;;11.48;2.78;;;;;;;;;;5093172;28;20221;-80
2023/08/19 06:48:23;;;;;;;10.88;2.78;;;;;;;;;;5093336;28;20182;-80
2023/08/19 06:50:51;;;;;;;11.70;2.45;;;;;;;;;;5093195;28;20221;-80
2023/08/19 06:53:20;;;;;;;9.38;2.80;;;;;;;;;;5092701;28;20254;-80
2023/08/19 06:55:57;;;;;;;8.02;2.42;;;;;;;;;;5092580;28;20226;-79
2023/08/19 06:58:25;;;;;;;13.75;2.83;;;;;;;;;;5092848;28;20878;-81
2023/08/19 07:00:56;;;;;;;11.68;2.75;;;;;;;;;;5092638;28;20205;-81
2023/08/19 07:03:23;;;;;;;8.55;2.55;;;;;;;;;;5092877;28;20564;-81
2023/08/19 07:05:51;;;;;;;11.90;2.72;;;;;;;;;;5092838;28;20272;-81
2023/08/19 07:08:20;;;;;;;12.45;2.70;;;;;;;;;;5091986;28;20190;-81
2023/08/19 07:10:47;;;;;;;12.40;3.15;;;;;;;;;;5091915;28;20286;-79
2023/08/19 07:13:15;;;;;;;11.98;3.20;;;;;;;;;;5092518;28;20229;-80
2023/08/19 07:15:44;;;;;;;11.70;3.00;;;;;;;;;;5092177;28;20194;-80
2023/08/19 07:18:15;;;;;;;17.83;3.45;;;;;;;;;;5091780;28;20285;-79
2023/08/19 07:20:42;;;;;;;12.02;2.97;;;;;;;;;;5091932;28;20273;-80
2023/08/19 07:23:10;;;;;;;13.63;2.90;;;;;;;;;;5091956;28;20575;-81
2023/08/19 07:25:39;;;;;;;17.45;3.03;;;;;;;;;;5091479;28;20262;-80
2023/08/19 07:28:07;;;;;;;13.50;2.65;;;;;;;;;;5091849;28;20250;-80
2023/08/19 07:30:35;;;;;;;14.75;3.40;;;;;;;;;;5091469;28;20396;-80
2023/08/19 07:33:04;;;;;;;16.98;3.10;;;;;;;;;;5091855;28;20265;-79
2023/08/19 07:35:31;;;;;;;13.85;2.90;;;;;;;;;;5091708;28;20206;-80
2023/08/19 07:37:58;;;;;;;12.60;2.63;;;;;;;;;;5091349;28;20286;-80
2023/08/19 07:40:25;;;;;;;9.15;2.30;;;;;;;;;;5089460;28;20595;-80
2023/08/19 07:42:54;;;;;;;15.20;2.75;;;;;;;;;;5090858;28;20237;-80
2023/08/19 07:45:21;;;;;;;14.80;2.78;;;;;;;;;;5071319;28;20262;-80
2023/08/19 07:47:48;;;;;;;10.10;2.75;;;;;;;;;;4720161;28;10000211;-80
2023/08/19 07:50:16;;;;;;;15.95;2.78;;;;;;;;;;5086973;28;20823;-79
2023/08/19 07:52:43;;;;;;;14.18;2.40;;;;;;;;;;5088257;28;20233;-79
2023/08/19 07:55:10;;;;;;;12.30;2.20;;;;;;;;;;5088221;28;20198;-78
2023/08/19 07:57:38;;;;;;;14.57;3.05;;;;;;;;;;5088191;28;20204;-79
2023/08/19 08:00:09;;;;;;;13.20;2.72;;;;;;;;;;5087598;28;20553;-78
2023/08/19 08:02:36;;;;;;;11.05;2.83;;;;;;;;;;5087561;28;20194;-79
2023/08/19 08:05:03;;;;;;;11.73;2.67;;;;;;;;;;5089998;28;20250;-79
2023/08/19 08:07:30;;;;;;;9.82;2.30;;;;;;;;;;5087786;28;20237;-79
2023/08/19 08:09:58;;;;;;;13.93;2.38;;;;;;;;;;5084865;28;20639;-80
2023/08/19 08:12:25;;;;;;;9.85;2.13;;;;;;;;;;5085817;28;20283;-79
2023/08/19 08:14:52;;;;;;;13.30;2.55;;;;;;;;;;5090233;28;20277;-79
2023/08/19 08:17:20;;;;;;;12.05;2.35;;;;;;;;;;5089846;28;20627;-80
2023/08/19 08:19:48;;;;;;;12.88;2.50;;;;;;;;;;5088584;28;20186;-81
2023/08/19 08:22:15;;;;;;;11.27;3.00;;;;;;;;;;5088689;28;20205;-80
2023/08/19 08:24:42;;;;;;;12.30;2.20;;;;;;;;;;5090057;28;20245;-80
2023/08/19 08:27:10;;;;;;;13.85;2.38;;;;;;;;;;5090072;28;20193;-81
2023/08/19 08:29:37;;;;;;;11.60;2.17;;;;;;;;;;5088055;28;20202;-80
2023/08/19 08:32:04;;;;;;;13.43;2.70;;;;;;;;;;5089338;28;20186;-81
2023/08/19 08:34:33;;;;;;;10.40;1.83;;;;;;;;;;5078358;28;20743;-80
2023/08/19 08:37:00;;;;;;;9.02;2.03;;;;;;;;;;5070491;28;20235;-82
2023/08/19 08:39:27;;;;;;;8.30;1.90;;;;;;;;;;5084585;28;20259;-82
2023/08/19 08:41:54;;;;;;;7.85;2.13;;;;;;;;;;5090741;28;20186;-81
2023/08/19 08:44:22;;;;;;;9.98;2.13;;;;;;;;;;5092191;28;20299;-81
2023/08/19 08:46:51;;;;;;;7.97;1.83;;;;;;;;;;5092619;28;20669;-81
2023/08/19 08:49:19;;;;;;;7.53;1.52;;;;;;;;;;5094559;28;20222;-80
2023/08/19 08:51:47;;;;;;;8.35;1.90;;;;;;;;;;5095203;28;20286;-81
2023/08/19 08:54:15;;;;;;;7.05;1.65;;;;;;;;;;5094649;28;20343;-82
2023/08/19 08:56:42;;;;;;;8.63;1.60;;;;;;;;;;5094549;28;20226;-81
2023/08/19 08:59:09;;;;;;;4.85;1.45;;;;;;;;;;5094795;28;20241;-82
2023/08/19 09:01:36;;;;;;;10.20;1.85;;;;;;;;;;5094342;28;20201;-81
2023/08/19 09:04:06;;;;;;;7.53;1.70;;;;;;;;;;5094524;28;20281;-81
2023/08/19 09:06:34;;;;;;;6.13;1.60;;;;;;;;;;5094141;28;20258;-82
2023/08/19 09:09:03;;;;;;;8.55;1.60;;;;;;;;;;5095361;28;20260;-82
2023/08/19 09:11:35;;;;;;;9.93;1.60;;;;;;;;;;5094247;28;20202;-80
2023/08/19 09:14:07;;;;;;;8.10;1.88;;;;;;;;;;5094237;28;20204;-81
2023/08/19 09:16:34;;;;;;;7.63;1.85;;;;;;;;;;5094524;28;20694;-82
2023/08/19 09:19:01;;;;;;;7.90;1.85;;;;;;;;;;5094241;28;20285;-82
2023/08/19 09:21:28;;;;;;;9.27;1.95;;;;;;;;;;5094107;28;20198;-82
2023/08/19 09:23:56;;;;;;;6.65;1.52;;;;;;;;;;5094264;28;20201;-81
2023/08/19 09:26:24;;;;;;;9.07;2.20;;;;;;;;;;5111888;28;20237;-81
2023/08/19 09:28:51;;;;;;;6.60;1.80;;;;;;;;;;5113967;28;20198;-82
2023/08/19 09:31:20;;;;;;;9.18;2.15;;;;;;;;;;5094110;28;20230;-81
2023/08/19 09:33:47;;;;;;;6.30;1.85;;;;;;;;;;5093881;28;20194;-80
2023/08/19 09:36:14;;;;;;;8.20;2.00;;;;;;;;;;5094007;28;20229;-81
2023/08/19 09:38:42;;;;;;;10.82;1.95;;;;;;;;;;5094002;28;20274;-80
2023/08/19 09:41:10;;;;;;;5.82;1.80;;;;;;;;;;5093791;28;20226;-81
2023/08/19 09:43:41;;;;;;;6.30;1.70;;;;;;;;;;5094183;28;20234;-81
2023/08/19 09:46:08;;;;;;;9.10;2.10;;;;;;;;;;5091348;28;20718;-81
2023/08/19 09:48:36;;;;;;;6.28;1.80;;;;;;;;;;5093294;28;20218;-82
2023/08/19 09:51:03;;;;;;;5.72;1.48;;;;;;;;;;5093119;28;20197;-81
2023/08/19 09:53:31;;;;;;;7.90;1.90;;;;;;;;;;5093164;28;20275;-81
2023/08/19 09:55:58;;;;;;;5.30;1.60;;;;;;;;;;5093113;28;20200;-81
2023/08/19 09:58:26;;;;;;;5.68;1.45;;;;;;;;;;5095225;28;20202;-81
2023/08/19 10:00:55;;;;;;;4.85;1.50;;;;;;;;;;5113913;28;20194;-82
2023/08/19 10:03:23;;;;;;;7.80;2.15;;;;;;;;;;5113589;28;20786;-82
2023/08/19 10:05:52;;;;;;;6.30;1.80;;;;;;;;;;5113878;28;20221;-80
2023/08/19 10:08:20;;;;;;;6.07;1.55;;;;;;;;;;5094704;28;20920;-82
2023/08/19 10:10:48;;;;;;;4.00;1.45;;;;;;;;;;5093446;28;20225;-81
2023/08/19 10:13:16;;;;;;;5.07;1.58;;;;;;;;;;5093689;28;20674;-81
2023/08/19 10:15:44;;;;;;;7.28;1.88;;;;;;;;;;5094221;28;20232;-81
2023/08/19 10:18:15;;;;;;;4.97;1.60;;;;;;;;;;5093094;28;20289;-82
2023/08/19 10:20:42;;;;;;;4.03;1.33;;;;;;;;;;5093335;28;20233;-81
2023/08/19 10:23:11;;;;;;;4.18;1.30;;;;;;;;;;5088484;28;20225;-84
2023/08/19 10:25:41;;;;;;;5.00;1.52;;;;;;;;;;5073165;28;20227;-83
2023/08/19 10:28:23;;;;;;;6.25;1.52;;;;;;;;;;5072513;28;20234;-81
2023/08/19 10:31:04;;;;;;;7.40;1.60;;;;;;;;;;5091830;28;20194;-83
2023/08/19 10:33:39;;;;;;;4.57;1.30;;;;;;;;;;5092432;28;20647;-82
2023/08/19 10:36:07;;;;;;;4.25;1.25;;;;;;;;;;5073707;28;20202;-81
2023/08/19 10:38:45;;;;;;;6.75;1.50;;;;;;;;;;5071940;28;20581;-80
2023/08/19 10:41:19;;;;;;;6.88;1.73;;;;;;;;;;5072510;28;20199;-81
2023/08/19 10:43:56;;;;;;;4.07;1.40;;;;;;;;;;5077558;28;20198;-81
2023/08/19 10:46:34;;;;;;;4.00;1.25;;;;;;;;;;5071953;28;20679;-82
2023/08/19 10:49:03;;;;;;;5.75;1.67;;;;;;;;;;5072119;28;20198;-81
2023/08/19 10:51:51;;;;;;;4.32;1.33;;;;;;;;;;5090129;28;20205;-81
2023/08/19 10:54:26;;;;;;;6.72;1.83;;;;;;;;;;5092252;28;20299;-82
2023/08/19 10:56:53;;;;;;;7.25;2.00;;;;;;;;;;5092357;28;20578;-82
2023/08/19 10:59:21;;;;;;;4.10;1.55;;;;;;;;;;5090168;28;20191;-82
2023/08/19 11:01:48;;;;;;;4.60;1.67;;;;;;;;;;5072438;28;20206;-82
2023/08/19 11:04:19;;;;;;;7.05;1.90;;;;;;;;;;5072285;28;20203;-82
2023/08/19 11:06:52;;;;;;;6.80;1.48;;;;;;;;;;5087814;28;20308;-82
2023/08/19 11:09:20;;;;;;;5.25;1.77;;;;;;;;;;5091945;28;20230;-82
2023/08/19 11:11:47;;;;;;;5.90;1.52;;;;;;;;;;5091971;28;20708;-83
2023/08/19 11:14:16;;;;;;;6.30;1.70;;;;;;;;;;5092388;28;20285;-82
2023/08/19 11:16:48;;;;;;;5.55;1.77;;;;;;;;;;5092215;28;20240;-85
2023/08/19 11:19:15;;;;;;;4.32;1.58;;;;;;;;;;5089863;28;20206;-84
2023/08/19 11:21:43;;;;;;;5.40;1.48;;;;;;;;;;5092079;28;20234;-81
2023/08/19 11:24:11;;;;;;;6.13;1.30;;;;;;;;;;5091970;28;20647;-83
2023/08/19 11:26:38;;;;;;;6.95;1.70;;;;;;;;;;5091738;28;20569;-82
2023/08/19 11:29:06;;;;;;;6.28;1.60;;;;;;;;;;5091853;28;20282;-85
2023/08/19 11:31:33;;;;;;;6.30;1.80;;;;;;;;;;5090988;28;20969;-83
2023/08/19 11:34:00;;;;;;;5.20;1.45;;;;;;;;;;5083084;28;20223;-83
2023/08/19 11:36:27;;;;;;;4.68;1.23;;;;;;;;;;5071352;28;20766;-84
2023/08/19 11:38:57;;;;;;;3.55;1.25;;;;;;;;;;5070807;28;20287;-83
2023/08/19 11:41:24;;;;;;;3.20;1.20;;;;;;;;;;5071501;28;20284;-83
2023/08/19 11:43:53;;;;;;;3.45;1.08;;;;;;;;;;5071826;28;20285;-83
2023/08/19 11:46:20;;;;;;;4.13;1.27;;;;;;;;;;5087002;28;20273;-83
2023/08/19 11:48:47;;;;;;;6.00;1.48;;;;;;;;;;5090773;28;20290;-83
2023/08/19 11:51:15;;;;;;;4.85;1.50;;;;;;;;;;5071322;28;20294;-84
2023/08/19 11:53:42;;;;;;;5.68;1.20;;;;;;;;;;5071231;28;20462;-82
2023/08/19 11:56:11;;;;;;;3.13;1.38;;;;;;;;;;5071116;28;20728;-84
2023/08/19 11:58:39;;;;;;;3.42;1.23;;;;;;;;;;5070989;28;20237;-84
2023/08/19 12:01:07;;;;;;;3.45;1.20;;;;;;;;;;5078321;28;20202;-82
2023/08/19 12:03:34;;;;;;;5.10;1.40;;;;;;;;;;5091041;28;20225;-84
2023/08/19 12:06:02;;;;;;;4.97;1.23;;;;;;;;;;5091472;28;20222;-82
2023/08/19 12:08:31;;;;;;;5.63;1.70;;;;;;;;;;5091247;28;20198;-80
2023/08/19 12:10:58;;;;;;;8.43;2.10;;;;;;;;;;5091508;28;20206;-82
2023/08/19 12:13:28;;;;;;;6.03;1.65;;;;;;;;;;5090410;28;20229;-81
2023/08/19 12:15:55;;;;;;;4.15;1.60;;;;;;;;;;5100249;28;20650;-80
2023/08/19 12:18:22;;;;;;;4.55;1.50;;;;;;;;;;5093623;28;20206;-80
2023/08/19 12:20:50;;;;;;;6.13;1.38;;;;;;;;;;5093145;28;20195;-80
2023/08/19 12:23:17;;;;;;;7.07;1.40;;;;;;;;;;5091772;28;20202;-80
2023/08/19 12:25:51;;;;;;;4.20;1.20;;;;;;;;;;5095342;28;20289;-81
2023/08/19 12:28:18;;;;;;;4.20;1.27;;;;;;;;;;5095334;28;20194;-81
2023/08/19 12:30:47;;;;;;;4.15;1.20;;;;;;;;;;5095836;28;20244;-81
2023/08/19 12:33:14;;;;;;;4.65;1.50;;;;;;;;;;5095319;28;20626;-80
2023/08/19 12:35:44;;;;;;;7.70;1.52;;;;;;;;;;5088406;28;20194;-81
2023/08/19 12:38:13;;;;;;;7.15;1.55;;;;;;;;;;5087773;28;20183;-82
2023/08/19 12:40:40;;;;;;;4.32;1.38;;;;;;;;;;5095288;28;20281;-82
2023/08/19 12:43:07;;;;;;;4.53;1.60;;;;;;;;;;5093736;28;20234;-82
2023/08/19 12:45:35;;;;;;;6.30;1.50;;;;;;;;;;5083779;28;20281;-82
2023/08/19 12:48:03;;;;;;;4.07;1.30;;;;;;;;;;5094586;28;20226;-81
2023/08/19 12:50:30;;;;;;;5.68;1.40;;;;;;;;;;5094088;28;20289;-80
2023/08/19 12:52:58;;;;;;;4.47;1.35;;;;;;;;;;5094241;28;20313;-81
2023/08/19 12:55:25;;;;;;;3.53;1.30;;;;;;;;;;5094836;28;20276;-81
2023/08/19 12:57:54;;;;;;;7.40;1.23;;;;;;;;;;5094266;28;20232;-82
2023/08/19 13:00:22;;;;;;;3.88;1.30;;;;;;;;;;5093566;28;20205;-80
2023/08/19 13:02:50;;;;;;;2.55;1.10;;;;;;;;;;5086070;28;20217;-82
2023/08/19 13:05:19;;;;;;;5.18;1.58;;;;;;;;;;5091857;28;20198;-81
2023/08/19 13:07:47;;;;;;;6.80;1.63;;;;;;;;;;5078073;28;20250;-82
2023/08/19 13:10:14;;;;;;;4.88;1.42;;;;;;;;;;5094681;28;20194;-83
2023/08/19 13:12:42;;;;;;;5.20;1.50;;;;;;;;;;5094051;28;20205;-80
2023/08/19 13:15:10;;;;;;;4.00;1.00;;;;;;;;;;5094396;28;20277;-79
2023/08/19 13:17:37;;;;;;;5.50;1.33;;;;;;;;;;5094061;28;20685;-81
2023/08/19 13:20:06;;;;;;;3.95;1.20;;;;;;;;;;5093961;28;20206;-80
2023/08/19 13:22:35;;;;;;;4.15;1.00;;;;;;;;;;5095005;28;20293;-81
2023/08/19 13:25:05;;;;;;;1.73;0.95;;;;;;;;;;5094030;28;20217;-81
2023/08/19 13:27:32;;;;;;;4.72;1.30;;;;;;;;;;5093516;28;20230;-83
2023/08/19 13:30:00;;;;;;;5.07;1.20;;;;;;;;;;5092951;28;20285;-82
2023/08/19 13:32:27;;;;;;;4.30;1.25;;;;;;;;;;5094226;28;20281;-82
2023/08/19 13:34:55;;;;;;;4.68;1.08;;;;;;;;;;5093669;28;20298;-83
2023/08/19 13:37:22;;;;;;;3.83;1.15;;;;;;;;;;5093983;28;20194;-84
2023/08/19 13:39:51;;;;;;;5.40;1.30;;;;;;;;;;5098859;28;20232;-81
2023/08/19 13:42:18;;;;;;;6.07;1.38;;;;;;;;;;5110448;28;20293;-83
2023/08/19 13:44:45;;;;;;;3.70;1.10;;;;;;;;;;5093493;28;20198;-83
2023/08/19 13:47:13;;;;;;;3.65;1.10;;;;;;;;;;5094069;28;20230;-82
2023/08/19 13:49:40;;;;;;;3.53;1.00;;;;;;;;;;5091678;28;20293;-81
2023/08/19 13:52:08;;;;;;;3.97;1.30;;;;;;;;;;5093543;28;20281;-81
2023/08/19 13:54:35;;;;;;;3.42;1.10;;;;;;;;;;5093216;28;20758;-82
2023/08/19 13:57:04;;;;;;;3.25;1.05;;;;;;;;;;5094939;28;20690;-80
2023/08/19 13:59:31;;;;;;;4.30;1.10;;;;;;;;;;5094182;28;20647;-82
2023/08/19 14:01:59;;;;;;;2.50;1.05;;;;;;;;;;5094558;28;20641;-82
2023/08/19 14:04:26;;;;;;;3.13;1.20;;;;;;;;;;5094272;28;20617;-81
2023/08/19 14:06:53;;;;;;;2.38;1.05;;;;;;;;;;5093329;28;20642;-82
2023/08/19 14:09:20;;;;;;;3.85;0.80;;;;;;;;;;5093593;28;20204;-82
2023/08/19 14:11:48;;;;;;;3.80;1.13;;;;;;;;;;5092924;28;20222;-82
2023/08/19 14:14:16;;;;;;;5.57;1.00;;;;;;;;;;5093634;28;20658;-82
2023/08/19 14:16:53;;;;;;;4.07;1.20;;;;;;;;;;5093290;28;20234;-82
2023/08/19 14:19:20;;;;;;;4.32;1.10;;;;;;;;;;5093393;28;20190;-83
2023/08/19 14:21:48;;;;;;;3.38;0.90;;;;;;;;;;5093384;28;20226;-83
2023/08/19 14:24:15;;;;;;;3.33;0.88;;;;;;;;;;5092596;28;20221;-84
2023/08/19 14:26:42;;;;;;;3.15;0.98;;;;;;;;;;5092899;28;20222;-82
2023/08/19 14:29:09;;;;;;;3.38;1.20;;;;;;;;;;5093030;28;20230;-82
2023/08/19 14:31:38;;;;;;;3.20;0.95;;;;;;;;;;5104311;28;20297;-82
2023/08/19 14:34:05;;;;;;;2.65;1.02;;;;;;;;;;5092889;28;20287;-82
2023/08/19 14:36:32;;;;;;;3.60;0.90;;;;;;;;;;5092679;28;20199;-83
2023/08/19 14:39:00;;;;;;;3.97;0.80;;;;;;;;;;5091956;28;20277;-82
2023/08/19 14:41:29;;;;;;;3.90;1.10;;;;;;;;;;5093271;28;20203;-82
2023/08/19 14:43:56;;;;;;;3.47;1.08;;;;;;;;;;5092519;28;20202;-82